createdAt,value
2022-08-05T00:02:30.360Z,101489.47
2022-08-05T00:04:59.390Z,101538.81
2022-08-05T00:11:28.007Z,101695.91
2022-08-05T00:14:16.943Z,101783.91
2022-08-05T00:16:52.730Z,101915.53
2022-08-05T00:20:02.731Z,102049.44
2022-08-05T00:22:41.228Z,102094.38
2022-08-05T00:25:49.719Z,102180.38
2022-08-05T00:28:37.939Z,102194.31
2022-08-05T00:31:54.085Z,102177.00
2022-08-05T00:34:55.197Z,102202.66
2022-08-05T00:37:24.621Z,102250.31
2022-08-05T00:39:58.325Z,102301.13
2022-08-05T00:42:41.620Z,102381.75
2022-08-05T00:45:28.301Z,102459.44
2022-08-05T00:48:12.070Z,102564.78
2022-08-05T00:51:08.751Z,102647.38
2022-08-05T00:54:12.520Z,102740.81
2022-08-05T00:56:51.805Z,102808.22
2022-08-05T00:59:21.245Z,102829.03
2022-08-05T01:01:51.098Z,102817.84
2022-08-05T01:04:29.897Z,102696.50
2022-08-05T01:07:35.406Z,102568.28
2022-08-05T01:10:16.603Z,102494.56
2022-08-05T01:13:00.397Z,102441.66
2022-08-05T01:15:59.495Z,102398.19
2022-08-05T01:18:56.392Z,102369.16
2022-08-05T01:21:50.580Z,102351.88
2022-08-05T01:24:48.665Z,102307.59
2022-08-05T01:27:55.710Z,102269.44
2022-08-05T01:30:53.777Z,102270.78
2022-08-05T01:33:35.560Z,102304.50
2022-08-05T01:36:34.153Z,102308.56
2022-08-05T01:39:11.376Z,102329.72
2022-08-05T01:41:49.381Z,102371.31
2022-08-05T01:44:23.206Z,102413.00
2022-08-05T01:47:05.245Z,102402.69
2022-08-05T01:50:00.438Z,102314.81
2022-08-05T01:52:29.964Z,102215.88
2022-08-05T01:55:11.805Z,102243.34
2022-08-05T01:58:29.224Z,102300.94
2022-08-05T02:01:12.756Z,102341.03
2022-08-05T02:04:38.607Z,102376.69
2022-08-05T02:07:22.090Z,102404.44
2022-08-05T02:10:03.373Z,102463.22
2022-08-05T02:12:43.483Z,102504.59
2022-08-05T02:19:27.321Z,102569.50
2022-08-05T02:22:33.644Z,102590.50
2022-08-05T02:25:12.638Z,102609.47
2022-08-05T02:28:00.525Z,102599.84
2022-08-05T02:30:51.785Z,102579.38
2022-08-05T02:33:24.314Z,102527.88
2022-08-05T02:36:20.103Z,102529.09
2022-08-05T02:38:56.308Z,102541.81
2022-08-05T02:41:28.611Z,102577.47
2022-08-05T02:44:12.398Z,102696.75
2022-08-05T02:46:58.934Z,102804.56
2022-08-05T02:49:59.855Z,102927.00
2022-08-05T02:52:39.795Z,103047.00
2022-08-05T02:55:17.506Z,103220.34
2022-08-05T02:58:28.797Z,103494.50
2022-08-05T03:01:04.197Z,103743.97
2022-08-05T03:04:02.222Z,103981.81
2022-08-05T03:06:54.597Z,104208.78
2022-08-05T03:09:15.947Z,104427.91
2022-08-05T03:11:57.107Z,104688.22
2022-08-05T03:14:30.372Z,104951.44
2022-08-05T03:17:03.342Z,105215.94
2022-08-05T03:19:38.271Z,105447.88
2022-08-05T03:22:16.308Z,105562.84
2022-08-05T03:24:52.342Z,105588.34
2022-08-05T03:27:59.064Z,105787.13
2022-08-05T03:30:34.010Z,105997.06
2022-08-05T03:33:04.296Z,106163.09
2022-08-05T03:35:40.885Z,106312.72
2022-08-05T03:38:16.625Z,106488.75
2022-08-05T03:40:54.193Z,106659.28
2022-08-05T03:44:08.598Z,106710.41
2022-08-05T03:46:22.706Z,106738.69
2022-08-05T03:48:57.783Z,106683.03
2022-08-05T03:52:38.944Z,106738.69
2022-08-05T03:55:49.808Z,106798.91
2022-08-05T03:57:56.272Z,106828.13
2022-08-05T04:00:41.866Z,106900.25
2022-08-05T04:03:26.601Z,106976.00
2022-08-05T04:05:57.945Z,107008.88
2022-08-05T04:08:36.326Z,107009.75
2022-08-05T04:11:08.437Z,107026.19
2022-08-05T04:13:53.445Z,107030.75
2022-08-05T04:16:25.508Z,107017.06
2022-08-05T04:19:00.920Z,107075.50
2022-08-05T04:22:08.788Z,107164.91
2022-08-05T04:24:44.198Z,107236.16
2022-08-05T04:27:15.196Z,107314.63
2022-08-05T04:29:54.210Z,107370.28
2022-08-05T04:32:31.101Z,107415.03
2022-08-05T04:35:04.756Z,107469.81
2022-08-05T04:38:01.075Z,107560.16
2022-08-05T04:40:23.132Z,107619.47
2022-08-05T04:42:51.511Z,107674.25
2022-08-05T04:46:27.841Z,107729.09
2022-08-05T04:49:04.831Z,107781.41
2022-08-05T04:52:11.757Z,107754.88
2022-08-05T04:54:49.350Z,107686.16
2022-08-05T04:57:18.290Z,107737.03
2022-08-05T04:59:48.165Z,107901.41
2022-08-05T05:02:37.111Z,108076.75
2022-08-05T05:05:26.045Z,108223.56
2022-08-05T05:08:01.750Z,108358.13
2022-08-05T05:10:33.276Z,108374.38
2022-08-05T05:13:04.851Z,108390.78
2022-08-05T05:15:59.105Z,108383.31
2022-08-05T05:18:37.053Z,108450.03
2022-08-05T05:21:28.771Z,108439.84
2022-08-05T05:24:56.061Z,108577.69
2022-08-05T05:27:16.070Z,108711.50
2022-08-05T05:30:04.898Z,108854.91
2022-08-05T05:32:42.495Z,108969.00
2022-08-05T05:35:11.703Z,109066.75
2022-08-05T05:38:30.518Z,109143.78
2022-08-05T05:40:58.979Z,109102.63
2022-08-05T05:43:57.957Z,109059.75
2022-08-05T05:46:50.183Z,108924.47
2022-08-05T05:49:45.515Z,108747.00
2022-08-05T05:52:38.023Z,108464.06
2022-08-05T05:55:13.779Z,108465.81
2022-08-05T05:57:52.813Z,108484.13
2022-08-05T06:00:31.296Z,108516.97
2022-08-05T06:07:06.107Z,108314.59
2022-08-05T06:10:00.557Z,108135.38
2022-08-05T06:13:06.879Z,107844.41
2022-08-05T06:16:40.405Z,107563.41
2022-08-05T06:20:07.016Z,107177.41
2022-08-05T06:23:21.568Z,106932.94
2022-08-05T06:26:23.896Z,106829.03
2022-08-05T06:28:59.830Z,106602.91
2022-08-05T06:31:50.643Z,106466.19
2022-08-05T06:34:26.425Z,106285.72
2022-08-05T06:36:57.911Z,106159.84
2022-08-05T06:39:37.836Z,106024.13
2022-08-05T06:42:17.826Z,105910.31
2022-08-05T06:44:50.243Z,105901.22
2022-08-05T06:48:12.468Z,106039.72
2022-08-05T06:50:26.262Z,106267.53
2022-08-05T06:56:04.670Z,106755.13
2022-08-05T06:59:01.552Z,106745.97
2022-08-05T07:01:52.921Z,106755.09
2022-08-05T07:04:23.659Z,106692.19
2022-08-05T07:06:56.521Z,106632.97
2022-08-05T07:09:32.720Z,106677.63
2022-08-05T07:12:32.495Z,106571.91
2022-08-05T07:15:34.591Z,106441.63
2022-08-05T07:18:14.627Z,106000.47
2022-08-05T07:20:51.014Z,105483.78
2022-08-05T07:23:26.301Z,105151.41
2022-08-05T07:25:57.760Z,104923.56
2022-08-05T07:28:26.638Z,104942.69
2022-08-05T07:30:55.277Z,105018.41
2022-08-05T07:33:36.792Z,105088.44
2022-08-05T07:36:20.326Z,105064.56
2022-08-05T07:38:54.897Z,104848.88
2022-08-05T07:42:12.893Z,104509.28
2022-08-05T07:44:19.764Z,104274.53
2022-08-05T07:46:50.643Z,104009.53
2022-08-05T07:49:21.576Z,103865.88
2022-08-05T07:51:55.059Z,103746.47
2022-08-05T07:54:31.718Z,103504.75
2022-08-05T07:57:58.889Z,103335.84
2022-08-05T08:08:12.357Z,103322.75
2022-08-05T08:18:50.211Z,103872.97
2022-08-05T08:21:56.564Z,104178.16
2022-08-05T08:24:51.991Z,104452.59
2022-08-05T08:28:36.119Z,104550.03
2022-08-05T08:31:08.321Z,104736.53
2022-08-05T08:33:58.401Z,104852.97
2022-08-05T08:42:51.015Z,105429.88
2022-08-05T08:54:36.451Z,104970.03
2022-08-05T08:57:57.936Z,105070.03
2022-08-05T09:05:16.936Z,104911.31
2022-08-05T09:08:30.095Z,104716.66
2022-08-05T09:28:47.142Z,105054.75
2022-08-05T10:01:02.214Z,103052.66
2022-08-05T10:03:58.772Z,102810.22
2022-08-05T10:06:28.895Z,102673.56
2022-08-05T10:09:27.825Z,102614.88
2022-08-05T10:12:18.891Z,102574.47
2022-08-05T10:15:16.233Z,102460.63
2022-08-05T10:18:03.412Z,102366.00
2022-08-05T10:20:33.321Z,102271.44
2022-08-05T10:23:01.973Z,102234.97
2022-08-05T10:25:31.613Z,102173.34
2022-08-05T10:28:13.635Z,102102.34
2022-08-05T10:32:49.583Z,102028.88
2022-08-05T10:33:37.137Z,101883.72
2022-08-05T10:36:08.317Z,101788.28
2022-08-05T10:38:38.658Z,101718.09
2022-08-05T10:41:23.433Z,101668.19
2022-08-05T10:43:59.293Z,101624.84
2022-08-05T10:46:44.801Z,101569.66
2022-08-05T10:49:16.759Z,101539.75
2022-08-05T10:51:53.056Z,101518.16
2022-08-05T10:54:56.225Z,101499.47
2022-08-05T10:57:31.688Z,101479.59
2022-08-05T11:00:18.609Z,101463.28
2022-08-05T11:03:25.532Z,101450.31
2022-08-05T11:06:08.526Z,101432.16
2022-08-05T11:09:39.074Z,101418.44
2022-08-05T11:12:50.909Z,101385.44
2022-08-05T11:16:00.895Z,101376.22
2022-08-05T11:18:34.333Z,101364.81
2022-08-05T11:21:11.322Z,101351.41
2022-08-05T11:24:05.409Z,101345.06
2022-08-05T11:26:43.502Z,101326.91
2022-08-05T11:29:36.169Z,101319.41
2022-08-05T11:32:24.586Z,101313.19
2022-08-05T11:34:54.136Z,101300.81
2022-08-05T11:38:29.278Z,101291.44
2022-08-05T11:41:35.041Z,101288.81
2022-08-05T11:44:00.890Z,101276.09
2022-08-05T11:46:37.435Z,101278.25
2022-08-05T11:49:08.027Z,101270.75
2022-08-05T11:51:44.077Z,101267.41
2022-08-05T11:54:33.175Z,101264.81
2022-08-05T11:57:08.353Z,101247.53
2022-08-05T11:59:53.329Z,101259.75
2022-08-05T12:02:31.342Z,101261.28
2022-08-05T12:05:07.189Z,101252.63
2022-08-05T12:08:08.585Z,101257.28
2022-08-05T12:10:43.770Z,101259.53
2022-08-05T12:13:28.042Z,101263.50
2022-08-05T12:16:14.974Z,101271.34
2022-08-05T12:18:49.501Z,101265.53
2022-08-05T12:21:24.159Z,101278.63
2022-08-05T12:24:00.090Z,101288.56
2022-08-05T12:26:36.283Z,101290.66
2022-08-05T12:29:09.546Z,101285.97
2022-08-05T12:31:49.719Z,101289.16
2022-08-05T12:34:25.831Z,101302.22
2022-08-05T12:36:56.338Z,101308.78
2022-08-05T12:39:34.672Z,101315.09
2022-08-05T12:42:14.803Z,101325.13
2022-08-05T12:44:47.546Z,101330.59
2022-08-05T12:47:28.827Z,101339.09
2022-08-05T12:50:04.166Z,101345.91
2022-08-05T12:52:39.365Z,101355.41
2022-08-05T12:55:23.883Z,101371.31
2022-08-05T12:58:50.460Z,101375.75
2022-08-05T13:02:00.489Z,101387.72
2022-08-05T13:03:42.155Z,101389.03
2022-08-05T13:06:17.126Z,101398.13
2022-08-05T13:08:52.267Z,101405.06
2022-08-05T13:11:25.499Z,101414.88
2022-08-05T13:14:19.329Z,101416.91
2022-08-05T13:16:56.693Z,101429.03
2022-08-05T13:19:52.382Z,101440.00
2022-08-05T13:22:28.299Z,101435.06
2022-08-05T13:25:00.831Z,101445.78
2022-08-05T13:27:35.582Z,101455.28
2022-08-05T13:30:35.364Z,101456.75
2022-08-05T13:33:01.104Z,101468.13
2022-08-05T13:35:42.437Z,101482.41
2022-08-05T13:38:28.635Z,101487.47
2022-08-05T13:41:00.208Z,101489.09
2022-08-05T13:43:45.651Z,101508.69
2022-08-05T13:46:35.745Z,101511.44
2022-08-05T13:49:10.343Z,101527.00
2022-08-05T13:51:45.893Z,101531.78
2022-08-05T13:54:16.213Z,101541.47
2022-08-05T13:56:51.056Z,101543.34
2022-08-05T13:59:24.337Z,101551.69
2022-08-05T14:01:57.359Z,101553.72
2022-08-05T14:04:49.967Z,101558.22
2022-08-05T14:07:26.187Z,101560.38
2022-08-05T14:10:10.803Z,101572.91
2022-08-05T14:12:39.250Z,101565.81
2022-08-05T14:16:07.404Z,101568.91
2022-08-05T14:17:57.813Z,101572.72
2022-08-05T14:20:29.581Z,101570.59
2022-08-05T14:22:58.115Z,101566.59
2022-08-05T14:25:28.364Z,101577.09
2022-08-05T14:27:59.007Z,101580.38
2022-08-05T14:30:28.355Z,101574.66
2022-08-05T14:32:58.792Z,101580.63
2022-08-05T14:35:37.160Z,101583.25
2022-08-05T14:38:33.298Z,101589.91
2022-08-05T14:41:06.673Z,101586.22
2022-08-05T14:43:57.672Z,101582.56
2022-08-05T14:46:28.201Z,101573.31
2022-08-05T14:48:58.552Z,101580.78
2022-08-05T14:51:30.973Z,101578.75
2022-08-05T14:54:26.449Z,101576.16
2022-08-05T14:56:54.662Z,101581.06
2022-08-05T14:59:23.114Z,101586.56
2022-08-05T15:01:51.485Z,101578.63
2022-08-05T15:04:22.833Z,101585.88
2022-08-05T15:06:54.206Z,101587.66
2022-08-05T15:09:52.070Z,101590.13
2022-08-05T15:12:16.624Z,101589.56
2022-08-05T15:14:50.163Z,101588.94
2022-08-05T15:17:47.271Z,101588.16
2022-08-05T15:20:19.055Z,101598.56
2022-08-05T15:22:54.207Z,101597.59
2022-08-05T15:25:51.945Z,101599.25
2022-08-05T15:28:16.308Z,101600.06
2022-08-05T15:30:46.238Z,101599.66
2022-08-05T15:34:04.916Z,101607.50
2022-08-05T15:36:03.913Z,101600.50
2022-08-05T15:38:36.468Z,101610.50
2022-08-05T15:41:23.923Z,101607.91
2022-08-05T15:43:54.601Z,101597.38
2022-08-05T15:46:24.836Z,101622.13
2022-08-05T15:48:58.675Z,101607.44
2022-08-05T15:52:10.309Z,101618.81
2022-08-05T15:54:37.457Z,101623.00
2022-08-05T15:57:08.037Z,101604.69
2022-08-05T15:59:38.154Z,101617.94
2022-08-05T16:02:09.730Z,101618.66
2022-08-05T16:04:43.491Z,101614.50
2022-08-05T16:07:13.294Z,101628.16
2022-08-05T16:09:43.604Z,101623.81
2022-08-05T16:12:13.194Z,101632.06
2022-08-05T16:14:43.782Z,101637.00
2022-08-05T16:17:12.720Z,101628.59
2022-08-05T16:20:04.269Z,101629.81
2022-08-05T16:22:34.458Z,101635.94
2022-08-05T16:25:09.425Z,101627.00
2022-08-05T16:28:00.179Z,101631.50
2022-08-05T16:30:29.150Z,101628.47
2022-08-05T16:32:57.767Z,101642.28
2022-08-05T16:35:33.748Z,101638.31
2022-08-05T16:38:23.898Z,101634.84
2022-08-05T16:40:55.515Z,101639.88
2022-08-05T16:43:31.382Z,101648.88
2022-08-05T16:46:06.812Z,101642.63
2022-08-05T16:48:41.124Z,101649.41
2022-08-05T16:51:10.759Z,101650.84
2022-08-05T16:54:04.927Z,101651.91
2022-08-05T16:56:30.269Z,101667.25
2022-08-05T16:59:08.335Z,101666.66
2022-08-05T17:01:53.096Z,101676.22
2022-08-05T17:04:26.508Z,101676.09
2022-08-05T17:06:56.944Z,101674.63
2022-08-05T17:09:29.534Z,101683.47
2022-08-05T17:11:59.758Z,101679.69
2022-08-05T17:14:37.729Z,101677.97
2022-08-05T17:17:14.444Z,101680.13
2022-08-05T17:19:46.067Z,101684.78
2022-08-05T17:22:24.998Z,101682.50
2022-08-05T17:24:57.853Z,101688.88
2022-08-05T17:27:33.725Z,101685.47
2022-08-05T17:30:12.185Z,101694.88
2022-08-05T17:32:54.323Z,101693.69
2022-08-05T17:35:23.000Z,101699.31
2022-08-05T17:37:50.974Z,101700.22
2022-08-05T17:40:22.617Z,101703.97
2022-08-05T17:42:52.949Z,101708.47
2022-08-05T17:45:25.018Z,101711.50
2022-08-05T17:47:57.705Z,101721.78
2022-08-05T17:50:30.141Z,101723.94
2022-08-05T17:53:02.670Z,101720.16
2022-08-05T17:55:38.468Z,101729.56
2022-08-05T17:58:11.116Z,101724.94
2022-08-05T18:00:45.417Z,101730.00
2022-08-05T18:03:56.593Z,101736.25
2022-08-05T18:06:12.127Z,101740.09
2022-08-05T18:08:44.586Z,101750.19
2022-08-05T18:11:23.684Z,101743.53
2022-08-05T18:13:53.215Z,101745.41
2022-08-05T18:16:22.698Z,101741.59
2022-08-05T18:18:51.630Z,101760.44
2022-08-05T18:21:22.762Z,101763.28
2022-08-05T18:23:54.290Z,101764.72
2022-08-05T18:26:29.251Z,101767.00
2022-08-05T18:28:58.353Z,101775.25
2022-08-05T18:31:33.913Z,101773.59
2022-08-05T18:34:06.210Z,101776.28
2022-08-05T18:36:41.301Z,101779.09
2022-08-05T18:39:22.236Z,101778.72
2022-08-05T18:42:04.772Z,101790.34
2022-08-05T18:44:51.677Z,101796.88
2022-08-05T18:47:26.807Z,101790.38
2022-08-05T18:50:13.282Z,101796.09
2022-08-05T18:52:50.529Z,101797.44
2022-08-05T18:55:21.569Z,101806.88
2022-08-05T18:57:53.889Z,101808.38
2022-08-05T19:00:28.361Z,101801.88
2022-08-05T19:03:04.142Z,101799.47
2022-08-05T19:06:12.713Z,101812.22
2022-08-05T19:08:30.925Z,101810.03
2022-08-05T19:11:04.494Z,101818.25
2022-08-05T19:13:35.759Z,101822.59
2022-08-05T19:16:25.067Z,101824.66
2022-08-05T19:18:56.810Z,101836.56
2022-08-05T19:21:27.715Z,101834.97
2022-08-05T19:24:06.101Z,101836.75
2022-08-05T19:26:54.344Z,101841.00
2022-08-05T19:29:26.789Z,101848.66
2022-08-05T19:32:05.434Z,101851.56
2022-08-05T19:34:38.181Z,101855.72
2022-08-05T19:37:06.633Z,101852.50
2022-08-05T19:39:45.922Z,101855.97
2022-08-05T19:42:35.736Z,101866.69
2022-08-05T19:45:06.465Z,101871.72
2022-08-05T19:47:37.646Z,101881.81
2022-08-05T19:50:11.797Z,101884.44
2022-08-05T19:52:41.163Z,101893.25
2022-08-05T19:56:12.415Z,101894.59
2022-08-05T19:58:14.193Z,101904.44
2022-08-05T20:00:47.873Z,101901.63
2022-08-05T20:03:16.054Z,101909.34
2022-08-05T20:05:49.978Z,101916.28
2022-08-05T20:08:18.886Z,101917.06
2022-08-05T20:10:50.003Z,101918.53
2022-08-05T20:13:30.365Z,101923.50
2022-08-05T20:16:07.112Z,101927.00
2022-08-05T20:18:36.223Z,101932.22
2022-08-05T20:21:07.635Z,101941.66
2022-08-05T20:23:40.480Z,101939.44
2022-08-05T20:26:21.108Z,101942.13
2022-08-05T20:28:51.051Z,101948.63
2022-08-05T20:31:21.943Z,101950.34
2022-08-05T20:33:51.589Z,101953.63
2022-08-05T20:36:24.109Z,101953.06
2022-08-05T20:38:54.674Z,101955.97
2022-08-05T20:41:43.220Z,101959.91
2022-08-05T20:44:19.037Z,101969.38
2022-08-05T20:46:57.823Z,101971.19
2022-08-05T20:49:26.437Z,101984.69
2022-08-05T20:51:57.467Z,101982.03
2022-08-05T20:54:43.010Z,101988.19
2022-08-05T20:57:42.337Z,101992.41
2022-08-05T21:00:20.553Z,101990.28
2022-08-05T21:03:01.156Z,101997.41
2022-08-05T21:05:48.377Z,101994.53
2022-08-05T21:08:19.253Z,101998.94
2022-08-05T21:10:49.186Z,102006.03
2022-08-05T21:13:37.895Z,102000.31
2022-08-05T21:16:06.899Z,102002.72
2022-08-05T21:18:35.931Z,102003.06
2022-08-05T21:21:04.151Z,101995.91
2022-08-05T21:23:37.127Z,102009.19
2022-08-05T21:26:14.291Z,102012.47
2022-08-05T21:28:48.020Z,102005.22
2022-08-05T21:31:19.207Z,102007.22
2022-08-05T21:33:49.461Z,102008.34
2022-08-05T21:36:27.604Z,102006.50
2022-08-05T21:38:59.665Z,102011.53
2022-08-05T21:41:33.834Z,102024.31
2022-08-05T21:44:04.129Z,102028.88
2022-08-05T21:46:34.534Z,102022.00
2022-08-05T21:49:04.780Z,102021.84
2022-08-05T21:52:21.434Z,102025.53
2022-08-05T21:54:27.990Z,102029.69
2022-08-05T21:57:28.390Z,102024.97
2022-08-05T22:00:03.997Z,102024.97
2022-08-05T22:02:41.826Z,102033.81
2022-08-05T22:05:11.998Z,102034.38
2022-08-05T22:07:59.091Z,102035.78
2022-08-05T22:10:29.689Z,102040.94
2022-08-05T22:14:06.358Z,102046.06
2022-08-05T22:16:01.813Z,102046.38
2022-08-05T22:18:36.293Z,102044.53
2022-08-05T22:21:19.327Z,102042.78
2022-08-05T22:24:08.841Z,102057.75
2022-08-05T22:26:56.562Z,102051.84
2022-08-05T22:29:26.758Z,102056.34
2022-08-05T22:31:59.729Z,102059.28
2022-08-05T22:34:32.410Z,102051.28
2022-08-05T22:37:01.174Z,102046.38
2022-08-05T22:39:33.900Z,102051.28
2022-08-05T22:42:09.518Z,102051.94
2022-08-05T22:44:42.536Z,102063.94
2022-08-05T22:47:28.994Z,102063.31
2022-08-05T22:50:20.046Z,102066.06
2022-08-05T22:52:49.204Z,102069.56
2022-08-05T22:55:19.180Z,102073.72
2022-08-05T22:57:50.364Z,102075.66
2022-08-05T23:00:20.584Z,102077.41
2022-08-05T23:02:50.647Z,102083.44
2022-08-05T23:05:19.385Z,102088.38
2022-08-05T23:07:50.810Z,102092.09
2022-08-05T23:10:19.636Z,102094.22
2022-08-05T23:12:55.128Z,102101.63
2022-08-05T23:15:29.030Z,102113.53
2022-08-05T23:18:03.650Z,102118.91
2022-08-05T23:20:37.423Z,102123.69
2022-08-05T23:23:08.640Z,102124.84
2022-08-05T23:25:52.196Z,102139.72
2022-08-05T23:28:28.564Z,102152.09
2022-08-05T23:31:16.280Z,102155.09
2022-08-05T23:34:05.472Z,102154.13
2022-08-05T23:36:39.837Z,102147.47
2022-08-05T23:39:16.421Z,102152.41
2022-08-05T23:41:51.972Z,102153.13
2022-08-05T23:44:24.955Z,102157.22
2022-08-05T23:46:53.402Z,102145.78
2022-08-05T23:49:33.862Z,102145.19
2022-08-05T23:52:25.105Z,102140.91
2022-08-05T23:54:54.661Z,102132.78
2022-08-05T23:57:24.596Z,102138.09
